Danbury, Texas
Current Conditions -  °F | °C
As of 8:53 PM on Sunday 23 Nov 2014 (Local Time) from KLBX Reporting Station
Clear Clear  
Wind Chill: 61°   Ceiling: Unl
Heat Index: 61°   Visibility: 10mi
Dew Point: 60°   Wind: 5mph
Humidity: 97%   Direction: 200°SSW
Pressure: 29.68"   Gusts: NA
Location:  29.23°N, 95.34°W
Report Text: KLBX 240253Z AUTO 20004KT 10SM CLR 16/16 A2968 RMK AO2 SLP050 T01610156 51024
Loading
Personal Weather Stations






























Interactive Weather Map New forecast layout! Learn more

10-Day Weather Forecast

Advertisements
Track Severe Weather on mobile